createdAt,value
2018-03-04T00:00:47.482Z,100153
2018-03-04T00:03:16.401Z,100161
2018-03-04T00:05:44.541Z,100154
2018-03-04T00:08:12.705Z,100151
2018-03-04T00:10:40.846Z,100145
2018-03-04T00:13:09.000Z,100156
2018-03-04T00:15:37.157Z,100146
2018-03-04T00:18:05.306Z,100156
2018-03-04T00:20:35.082Z,100160
2018-03-04T00:23:03.228Z,100164
2018-03-04T00:25:31.370Z,100152
2018-03-04T00:28:00.315Z,100160
2018-03-04T00:30:28.477Z,100169
2018-03-04T00:32:56.641Z,100168
2018-03-04T00:35:24.838Z,100174
2018-03-04T00:37:52.978Z,100176
2018-03-04T00:40:21.125Z,100181
2018-03-04T00:42:50.055Z,100178
2018-03-04T00:45:18.197Z,100183
2018-03-04T00:47:46.369Z,100176
2018-03-04T00:50:14.514Z,100174
2018-03-04T00:52:42.662Z,100175
2018-03-04T00:55:10.843Z,100173
2018-03-04T00:57:39.009Z,100163
2018-03-04T01:00:07.266Z,100164
2018-03-04T01:02:35.454Z,100163
2018-03-04T01:05:03.609Z,100166
2018-03-04T01:07:31.766Z,100153
2018-03-04T01:09:59.936Z,100147
2018-03-04T01:12:28.078Z,100142
2018-03-04T01:14:57.015Z,100137
2018-03-04T01:17:25.299Z,100145
2018-03-04T01:19:53.462Z,100131
2018-03-04T01:22:21.631Z,100132
2018-03-04T01:24:49.770Z,100130
2018-03-04T01:27:18.681Z,100130
2018-03-04T01:29:46.874Z,100120
2018-03-04T01:32:15.051Z,100135
2018-03-04T01:34:43.202Z,100131
2018-03-04T01:37:11.415Z,100117
2018-03-04T01:39:39.577Z,100123
2018-03-04T01:42:07.738Z,100134
2018-03-04T01:44:35.898Z,100133
2018-03-04T01:47:04.246Z,100129
2018-03-04T01:49:33.190Z,100129
2018-03-04T01:52:01.350Z,100137
2018-03-04T01:54:29.494Z,100134
2018-03-04T01:56:57.673Z,100129
2018-03-04T01:59:25.823Z,100126
2018-03-04T02:01:54.726Z,100117
2018-03-04T02:04:23.662Z,100114
2018-03-04T02:06:51.818Z,100120
2018-03-04T02:09:19.960Z,100118
2018-03-04T02:11:48.898Z,100125
2018-03-04T02:14:17.042Z,100125
2018-03-04T02:16:45.180Z,100134
2018-03-04T02:19:13.353Z,100132
2018-03-04T02:21:42.258Z,100129
2018-03-04T02:24:11.197Z,100122
2018-03-04T02:26:39.343Z,100132
2018-03-04T02:29:07.498Z,100132
2018-03-04T02:31:36.423Z,100126
2018-03-04T02:34:04.585Z,100133
2018-03-04T02:36:32.911Z,100136
2018-03-04T02:39:01.030Z,100135
2018-03-04T02:41:29.225Z,100142
2018-03-04T02:43:57.395Z,100132
2018-03-04T02:46:25.549Z,100141
2018-03-04T02:48:53.695Z,100130
2018-03-04T02:51:22.661Z,100131
2018-03-04T02:53:50.806Z,100123
2018-03-04T02:56:18.950Z,100123
2018-03-04T02:58:47.145Z,100130
2018-03-04T03:01:15.297Z,100134
2018-03-04T03:03:43.480Z,100130
2018-03-04T03:06:11.659Z,100130
2018-03-04T03:08:39.806Z,100122
2018-03-04T03:11:08.039Z,100124
2018-03-04T03:13:36.178Z,100106
2018-03-04T03:16:04.317Z,100119
2018-03-04T03:18:33.305Z,100120
2018-03-04T03:21:02.207Z,100107
2018-03-04T03:23:30.354Z,100116
2018-03-04T03:25:59.286Z,100107
2018-03-04T03:28:27.430Z,100122
2018-03-04T03:30:56.428Z,100121
2018-03-04T03:33:24.534Z,100113
2018-03-04T03:35:52.678Z,100115
2018-03-04T03:38:20.855Z,100127
2018-03-04T03:40:49.009Z,100125
2018-03-04T03:43:18.005Z,100125
2018-03-04T03:45:46.957Z,100122
2018-03-04T03:48:15.102Z,100116
2018-03-04T03:50:43.252Z,100120
2018-03-04T03:53:12.058Z,100107
2018-03-04T03:55:40.912Z,100115
2018-03-04T03:58:09.851Z,100110
2018-03-04T04:00:38.018Z,100116
2018-03-04T04:03:06.173Z,100114
2018-03-04T04:05:34.342Z,100107
2018-03-04T04:08:02.491Z,100098
2018-03-04T04:10:31.403Z,100094
2018-03-04T04:12:59.566Z,100086
2018-03-04T04:15:27.730Z,100075
2018-03-04T04:17:56.685Z,100085
2018-03-04T04:20:24.830Z,100086
2018-03-04T04:22:53.007Z,100086
2018-03-04T04:25:21.161Z,100085
2018-03-04T04:27:49.312Z,100082
2018-03-04T04:30:18.257Z,100087
2018-03-04T04:32:46.398Z,100093
2018-03-04T04:35:14.537Z,100082
2018-03-04T04:37:43.486Z,100081
2018-03-04T04:40:11.648Z,100088
2018-03-04T04:42:39.794Z,100082
2018-03-04T04:45:07.965Z,100093
2018-03-04T04:47:36.172Z,100094
2018-03-04T04:50:04.321Z,100088
2018-03-04T04:52:32.489Z,100091
2018-03-04T04:55:00.641Z,100086
2018-03-04T04:57:29.560Z,100067
2018-03-04T04:59:57.715Z,100078
2018-03-04T05:02:25.890Z,100084
2018-03-04T05:04:54.035Z,100079
2018-03-04T05:07:22.185Z,100067
2018-03-04T05:09:50.346Z,100066
2018-03-04T05:12:18.491Z,100070
2018-03-04T05:14:47.472Z,100078
2018-03-04T05:17:15.613Z,100065
2018-03-04T05:19:43.781Z,100077
2018-03-04T05:22:12.705Z,100073
2018-03-04T05:24:40.854Z,100077
2018-03-04T05:27:09.017Z,100070
2018-03-04T05:29:37.170Z,100074
2018-03-04T05:32:05.425Z,100080
2018-03-04T05:34:33.599Z,100085
2018-03-04T05:37:01.741Z,100080
2018-03-04T05:39:30.725Z,100081
2018-03-04T05:41:59.671Z,100095
2018-03-04T05:44:28.331Z,100087
2018-03-04T05:46:56.481Z,100096
2018-03-04T05:49:24.679Z,100081
2018-03-04T05:51:53.413Z,100079
2018-03-04T05:54:21.558Z,100082
2018-03-04T05:56:49.810Z,100083
2018-03-04T05:59:17.945Z,100085
2018-03-04T06:01:46.891Z,100079
2018-03-04T06:04:15.034Z,100090
2018-03-04T06:06:43.170Z,100089
2018-03-04T06:09:11.364Z,100097
2018-03-04T06:11:40.289Z,100083
2018-03-04T06:14:08.443Z,100093
2018-03-04T06:16:36.621Z,100097
2018-03-04T06:19:04.765Z,100094
2018-03-04T06:21:32.913Z,100094
2018-03-04T06:24:01.150Z,100092
2018-03-04T06:26:29.305Z,100102
2018-03-04T06:28:57.499Z,100092
2018-03-04T06:31:25.658Z,100100
2018-03-04T06:33:53.818Z,100086
2018-03-04T06:36:21.962Z,100089
2018-03-04T06:38:50.135Z,100095
2018-03-04T06:41:18.294Z,100083
2018-03-04T06:43:46.456Z,100090
2018-03-04T06:46:14.704Z,100089
2018-03-04T06:48:42.845Z,100091
2018-03-04T06:51:11.794Z,100096
2018-03-04T06:53:40.189Z,100091
2018-03-04T06:56:08.373Z,100090
2018-03-04T06:58:37.716Z,100087
2018-03-04T07:01:05.918Z,100092
2018-03-04T07:03:34.082Z,100081
2018-03-04T07:06:02.238Z,100076
2018-03-04T07:08:30.417Z,100090
2018-03-04T07:10:58.590Z,100079
2018-03-04T07:13:26.742Z,100063
2018-03-04T07:15:54.886Z,100064
2018-03-04T07:18:23.818Z,100058
2018-03-04T07:20:51.966Z,100055
2018-03-04T07:23:20.115Z,100055
2018-03-04T07:25:48.338Z,100055
2018-03-04T07:28:16.507Z,100057
2018-03-04T07:30:44.645Z,100050
2018-03-04T07:33:13.558Z,100043
2018-03-04T07:35:42.042Z,100047
2018-03-04T07:38:10.190Z,100041
2018-03-04T07:40:39.572Z,100043
2018-03-04T07:43:08.635Z,100041
2018-03-04T07:45:36.788Z,100042
2018-03-04T07:48:04.982Z,100033
2018-03-04T07:50:33.147Z,100035
2018-03-04T07:53:01.285Z,100022
2018-03-04T07:55:29.459Z,100023
2018-03-04T07:57:57.660Z,100021
2018-03-04T08:00:25.843Z,100028
2018-03-04T08:02:54.857Z,100027
2018-03-04T08:05:23.010Z,100017
2018-03-04T08:07:51.163Z,100019
2018-03-04T08:10:19.538Z,100014
2018-03-04T08:12:47.683Z,100020
2018-03-04T08:15:16.598Z,100021
2018-03-04T08:17:44.771Z,100013
2018-03-04T08:20:12.913Z,100013
2018-03-04T08:22:41.829Z,100009
2018-03-04T08:25:27.901Z,100014
2018-03-04T08:28:14.942Z,100017
2018-03-04T08:30:43.104Z,100003
2018-03-04T08:33:11.250Z,100016
2018-03-04T08:35:40.989Z,100012
2018-03-04T08:38:09.169Z,100009
2018-03-04T08:40:37.344Z,100007
2018-03-04T08:43:05.486Z,100005
2018-03-04T08:45:34.512Z,99996
2018-03-04T08:48:02.807Z,99996
2018-03-04T08:50:31.483Z,99993
2018-03-04T08:52:59.618Z,99998
2018-03-04T08:55:28.656Z,100004
2018-03-04T08:57:56.791Z,100007
2018-03-04T09:00:24.922Z,99995
2018-03-04T09:02:53.073Z,99981
2018-03-04T09:05:21.202Z,99989
2018-03-04T09:07:50.109Z,99977
2018-03-04T09:10:18.296Z,99981
2018-03-04T09:12:46.430Z,99968
2018-03-04T09:15:15.428Z,99966
2018-03-04T09:17:44.348Z,99968
2018-03-04T09:20:12.513Z,99971
2018-03-04T09:22:40.646Z,99969
2018-03-04T09:25:08.864Z,99968
2018-03-04T09:27:37.032Z,99960
2018-03-04T09:30:05.173Z,99963
2018-03-04T09:32:34.103Z,99966
2018-03-04T09:35:02.254Z,99967
2018-03-04T09:37:30.409Z,99968
2018-03-04T09:39:59.309Z,99961
2018-03-04T09:42:28.223Z,99962
2018-03-04T09:44:56.675Z,99956
2018-03-04T09:47:25.570Z,99963
2018-03-04T09:49:54.489Z,99958
2018-03-04T09:52:22.622Z,99958
2018-03-04T09:54:51.549Z,99967
2018-03-04T09:57:19.750Z,99965
2018-03-04T09:59:47.897Z,99959
2018-03-04T10:02:16.035Z,99957
2018-03-04T10:04:44.945Z,99958
2018-03-04T10:07:13.085Z,99956
2018-03-04T10:09:42.023Z,99960
2018-03-04T10:12:10.640Z,99955
2018-03-04T10:14:38.783Z,99943
2018-03-04T10:17:06.946Z,99943
2018-03-04T10:19:35.070Z,99945
2018-03-04T10:22:03.208Z,99934
2018-03-04T10:24:31.371Z,99944
2018-03-04T10:26:59.505Z,99939
2018-03-04T10:29:28.393Z,99936
2018-03-04T10:31:57.330Z,99931
2018-03-04T10:34:25.457Z,99932
2018-03-04T10:36:54.366Z,99932
2018-03-04T10:39:22.534Z,99927
2018-03-04T10:41:50.673Z,99911
2018-03-04T10:44:19.607Z,99905
2018-03-04T10:46:47.903Z,99903
2018-03-04T10:49:16.050Z,99898
2018-03-04T10:51:44.698Z,99903
2018-03-04T10:54:12.862Z,99909
2018-03-04T10:56:41.790Z,99900
2018-03-04T10:59:09.949Z,99888
2018-03-04T11:01:41.736Z,99890
2018-03-04T11:04:09.890Z,99898
2018-03-04T11:06:38.752Z,99893
2018-03-04T11:09:07.677Z,99893
2018-03-04T11:11:35.825Z,99901
2018-03-04T11:14:03.984Z,99891
2018-03-04T11:16:32.133Z,99890
2018-03-04T11:19:00.265Z,99886
2018-03-04T11:21:28.442Z,99883
2018-03-04T11:23:56.582Z,99892
2018-03-04T11:26:26.010Z,99887
2018-03-04T11:28:54.174Z,99889
2018-03-04T11:31:22.311Z,99893
2018-03-04T11:33:50.470Z,99883
2018-03-04T11:36:18.612Z,99882
2018-03-04T11:38:46.746Z,99876
2018-03-04T11:41:14.909Z,99867
2018-03-04T11:43:43.133Z,99859
2018-03-04T11:46:11.295Z,99861
2018-03-04T11:48:39.457Z,99871
2018-03-04T11:51:07.599Z,99872
2018-03-04T11:53:35.738Z,99866
2018-03-04T11:56:03.905Z,99855
2018-03-04T11:58:32.064Z,99858
2018-03-04T12:01:00.226Z,99860
2018-03-04T12:03:28.361Z,99859
2018-03-04T12:05:56.512Z,99845
2018-03-04T12:08:24.680Z,99846
2018-03-04T12:10:52.824Z,99843
2018-03-04T12:13:21.062Z,99836
2018-03-04T12:15:49.214Z,99840
2018-03-04T12:18:17.386Z,99837
2018-03-04T12:20:45.517Z,99850
2018-03-04T12:23:13.677Z,99832
2018-03-04T12:25:41.842Z,99839
2018-03-04T12:28:10.760Z,99829
2018-03-04T12:30:39.614Z,99827
2018-03-04T12:33:07.782Z,99827
2018-03-04T12:35:36.696Z,99824
2018-03-04T12:38:04.834Z,99819
2018-03-04T12:40:32.996Z,99820
2018-03-04T12:43:01.121Z,99809
2018-03-04T12:45:29.261Z,99813
2018-03-04T12:47:58.195Z,99797
2018-03-04T12:50:26.429Z,99806
2018-03-04T12:52:54.586Z,99800
2018-03-04T12:55:22.750Z,99800
2018-03-04T12:57:50.915Z,99798
2018-03-04T13:00:19.162Z,99807
2018-03-04T13:02:47.374Z,99808
2018-03-04T13:05:15.486Z,99813
2018-03-04T13:07:43.622Z,99825
2018-03-04T13:10:11.794Z,99818
2018-03-04T13:12:39.934Z,99810
2018-03-04T13:15:08.065Z,99804
2018-03-04T13:17:37.017Z,99802
2018-03-04T13:20:05.158Z,99807
2018-03-04T13:22:33.318Z,99812
2018-03-04T13:25:01.499Z,99795
2018-03-04T13:27:29.634Z,99794
2018-03-04T13:29:57.814Z,99794
2018-03-04T13:32:27.014Z,99795
2018-03-04T13:34:55.915Z,99789
2018-03-04T13:37:24.086Z,99787
2018-03-04T13:39:52.223Z,99785
2018-03-04T13:42:20.453Z,99793
2018-03-04T13:44:49.134Z,99783
2018-03-04T13:47:17.295Z,99786
2018-03-04T13:49:45.474Z,99788
2018-03-04T13:52:13.606Z,99788
2018-03-04T13:54:41.739Z,99785
2018-03-04T13:57:09.898Z,99782
2018-03-04T13:59:38.042Z,99780
2018-03-04T14:02:07.364Z,99782
2018-03-04T14:04:35.787Z,99790
2018-03-04T14:07:03.923Z,99774
2018-03-04T14:09:32.057Z,99782
2018-03-04T14:12:01.000Z,99777
2018-03-04T14:14:29.144Z,99772
2018-03-04T14:16:57.282Z,99773
2018-03-04T14:19:25.447Z,99762
2018-03-04T14:21:53.578Z,99758
2018-03-04T14:24:21.965Z,99751
2018-03-04T14:26:50.127Z,99750
2018-03-04T14:29:18.261Z,99743
2018-03-04T14:31:47.173Z,99744
2018-03-04T14:34:15.359Z,99740
2018-03-04T14:36:43.530Z,99730
2018-03-04T14:39:12.437Z,99745
2018-03-04T14:41:40.572Z,99731
2018-03-04T14:44:08.780Z,99733
2018-03-04T14:46:36.932Z,99727
2018-03-04T14:49:05.063Z,99722
2018-03-04T14:51:33.222Z,99722
2018-03-04T14:54:01.368Z,99723
2018-03-04T14:56:29.502Z,99729
2018-03-04T14:58:58.429Z,99722
2018-03-04T15:01:26.591Z,99708
2018-03-04T15:03:54.733Z,99712
2018-03-04T15:06:23.757Z,99706
2018-03-04T15:08:51.889Z,99698
2018-03-04T15:11:21.155Z,99693
2018-03-04T15:13:49.314Z,99692
2018-03-04T15:16:17.485Z,99687
2018-03-04T15:18:45.623Z,99704
2018-03-04T15:21:13.766Z,99696
2018-03-04T15:23:41.926Z,99696
2018-03-04T15:26:10.171Z,99700
2018-03-04T15:28:38.310Z,99703
2018-03-04T15:31:06.465Z,99698
2018-03-04T15:33:35.383Z,99686
2018-03-04T15:36:03.530Z,99679
2018-03-04T15:38:32.457Z,99674
2018-03-04T15:41:00.637Z,99687
2018-03-04T15:43:28.776Z,99688
2018-03-04T15:45:57.718Z,99674
2018-03-04T15:48:25.889Z,99679
2018-03-04T15:50:54.039Z,99684
2018-03-04T15:53:22.174Z,99697
2018-03-04T15:55:51.085Z,99686
2018-03-04T15:58:19.282Z,99687
2018-03-04T16:00:47.413Z,99685
2018-03-04T16:03:16.322Z,99682
2018-03-04T16:05:44.491Z,99677
2018-03-04T16:08:12.630Z,99678
2018-03-04T16:10:40.761Z,99686
2018-03-04T16:13:09.005Z,99690
2018-03-04T16:15:37.921Z,99699
2018-03-04T16:18:06.255Z,99706
2018-03-04T16:20:34.362Z,99702
2018-03-04T16:23:02.494Z,99708
2018-03-04T16:25:31.420Z,99719
2018-03-04T16:27:59.558Z,99705
2018-03-04T16:30:28.482Z,99699
2018-03-04T16:32:56.625Z,99708
2018-03-04T16:35:25.534Z,99702
2018-03-04T16:37:53.685Z,99701
2018-03-04T16:40:22.586Z,99703
2018-03-04T16:42:50.732Z,99691
2018-03-04T16:45:18.894Z,99706
2018-03-04T16:47:47.026Z,99705
2018-03-04T16:50:15.154Z,99701
2018-03-04T16:52:43.308Z,99693
2018-03-04T16:55:12.323Z,99694
2018-03-04T16:57:40.491Z,99689
2018-03-04T17:00:08.622Z,99689
2018-03-04T17:02:36.759Z,99685
2018-03-04T17:05:05.682Z,99677
2018-03-04T17:07:33.822Z,99656
2018-03-04T17:10:02.714Z,99678
2018-03-04T17:12:30.890Z,99677
2018-03-04T17:14:59.042Z,99671
2018-03-04T17:17:27.978Z,99661
2018-03-04T17:19:56.154Z,99654
2018-03-04T17:22:24.285Z,99658
2018-03-04T17:24:53.201Z,99672
2018-03-04T17:27:21.378Z,99675
2018-03-04T17:29:49.508Z,99681
2018-03-04T17:32:18.346Z,99677
2018-03-04T17:34:46.574Z,99676
2018-03-04T17:37:14.713Z,99680
2018-03-04T17:39:42.846Z,99684
2018-03-04T17:42:11.019Z,99685
2018-03-04T17:44:39.231Z,99673
2018-03-04T17:47:07.383Z,99677
2018-03-04T17:49:35.677Z,99679
2018-03-04T17:52:03.852Z,99674
2018-03-04T17:54:32.002Z,99659
2018-03-04T17:57:00.136Z,99667
2018-03-04T17:59:29.070Z,99680
2018-03-04T18:01:57.197Z,99674
2018-03-04T18:04:26.134Z,99682
2018-03-04T18:06:54.296Z,99683
2018-03-04T18:09:22.479Z,99682
2018-03-04T18:11:50.615Z,99674
2018-03-04T19:36:17.224Z,99620
2018-03-04T19:38:45.354Z,99618
2018-03-04T19:41:14.182Z,99616
2018-03-04T19:43:42.359Z,99623
2018-03-04T19:46:10.490Z,99616
2018-03-04T19:48:38.622Z,99615
2018-03-04T19:51:06.774Z,99621
2018-03-04T19:53:35.472Z,99626
2018-03-04T19:56:03.711Z,99625
2018-03-04T19:58:31.928Z,99628
2018-03-04T20:01:00.071Z,99635
2018-03-04T20:03:28.334Z,99631
2018-03-04T20:05:56.465Z,99631
2018-03-04T20:08:25.378Z,99630
2018-03-04T20:10:53.566Z,99638
2018-03-04T20:13:21.738Z,99638
2018-03-04T20:15:49.915Z,99637
2018-03-04T20:18:18.054Z,99623
2018-03-04T20:20:46.198Z,99635
2018-03-04T20:23:14.350Z,99622
2018-03-04T20:25:42.481Z,99621
2018-03-04T20:28:10.614Z,99615
2018-03-04T20:30:38.885Z,99608
2018-03-04T20:33:07.029Z,99601
2018-03-04T20:35:35.177Z,99598
2018-03-04T20:38:03.332Z,99593
2018-03-04T20:40:32.225Z,99593
2018-03-04T20:43:01.142Z,99597
2018-03-04T20:45:29.327Z,99599
2018-03-04T20:47:57.487Z,99598
2018-03-04T20:50:25.663Z,99589
2018-03-04T20:52:53.838Z,99589
2018-03-04T20:55:21.973Z,99589
2018-03-04T20:57:50.874Z,99584
2018-03-04T21:00:19.034Z,99579
2018-03-04T21:02:47.939Z,99580
2018-03-04T21:05:16.069Z,99574
2018-03-04T21:07:44.316Z,99570
2018-03-04T21:10:12.455Z,99563
2018-03-04T21:12:40.605Z,99560
2018-03-04T21:15:09.521Z,99572
2018-03-04T21:17:37.671Z,99576
2018-03-04T21:20:06.592Z,99563
2018-03-04T21:22:34.774Z,99550
2018-03-04T21:25:02.961Z,99551
2018-03-04T21:27:31.107Z,99555
2018-03-04T21:29:59.278Z,99554
2018-03-04T21:32:27.478Z,99544
2018-03-04T21:34:55.613Z,99531
2018-03-04T21:37:23.786Z,99540
2018-03-04T21:39:51.917Z,99535
2018-03-04T21:42:20.047Z,99526
2018-03-04T21:44:48.250Z,99522
2018-03-04T21:47:16.407Z,99521
2018-03-04T21:49:44.558Z,99533
2018-03-04T21:52:12.738Z,99524
2018-03-04T21:54:41.022Z,99530
2018-03-04T21:57:09.222Z,99536
2018-03-04T21:59:37.359Z,99546
2018-03-04T22:02:05.491Z,99563
2018-03-04T22:04:33.666Z,99569
2018-03-04T22:07:01.802Z,99563
2018-03-04T22:09:29.951Z,99565
2018-03-04T22:11:58.106Z,99568
2018-03-04T22:14:26.236Z,99565
2018-03-04T22:16:54.374Z,99560
2018-03-04T22:19:22.533Z,99560
2018-03-04T22:21:50.665Z,99563
2018-03-04T22:24:18.801Z,99572
2018-03-04T22:26:46.945Z,99579
2018-03-04T22:29:15.098Z,99576
2018-03-04T22:31:44.026Z,99562
2018-03-04T22:34:12.182Z,99557
2018-03-04T22:36:40.321Z,99548
2018-03-04T22:39:08.542Z,99560
2018-03-04T22:41:36.754Z,99554
2018-03-04T22:44:04.882Z,99553
2018-03-04T22:46:33.016Z,99560
2018-03-04T22:49:01.198Z,99554
2018-03-04T22:51:30.122Z,99550
2018-03-04T22:53:58.277Z,99550
2018-03-04T22:56:26.426Z,99549
2018-03-04T22:58:55.322Z,99552
2018-03-04T23:01:24.217Z,99545
2018-03-04T23:03:53.246Z,99552
2018-03-04T23:06:21.378Z,99555
2018-03-04T23:08:50.290Z,99561
2018-03-04T23:11:18.586Z,99554
2018-03-04T23:13:46.715Z,99542
2018-03-04T23:16:15.610Z,99542
2018-03-04T23:19:00.226Z,99537
2018-03-04T23:21:28.356Z,99541
2018-03-04T23:23:56.546Z,99532
2018-03-04T23:26:24.698Z,99539
2018-03-04T23:28:52.835Z,99536
2018-03-04T23:31:21.002Z,99540
2018-03-04T23:33:49.181Z,99546
2018-03-04T23:36:17.315Z,99532
2018-03-04T23:38:45.456Z,99543
2018-03-04T23:41:13.610Z,99540
2018-03-04T23:43:42.546Z,99534
2018-03-04T23:46:10.683Z,99529
2018-03-04T23:48:39.593Z,99534
2018-03-04T23:51:07.725Z,99528
2018-03-04T23:53:35.878Z,99530
2018-03-04T23:56:04.010Z,99509
2018-03-04T23:58:32.149Z,99504
